sensor_id;sensor_type;location;lat;lon;timestamp;pressure;altitude;pressure_sealevel;temperature;humidity
50710;BME280;37033;49.994;21.992;2022-12-29T00:01:24;99497.23;;;1.68;73.06
50710;BME280;37033;49.994;21.992;2022-12-29T00:04:14;99507.31;;;1.69;73.03
50710;BME280;37033;49.994;21.992;2022-12-29T00:07:04;99503.94;;;1.69;73.04
50710;BME280;37033;49.994;21.992;2022-12-29T00:09:54;99506.31;;;1.68;72.93
50710;BME280;37033;49.994;21.992;2022-12-29T00:12:44;99504.36;;;1.70;72.77
50710;BME280;37033;49.994;21.992;2022-12-29T00:16:08;99498.37;;;1.69;72.79
50710;BME280;37033;49.994;21.992;2022-12-29T00:18:58;99500.85;;;1.69;72.72
50710;BME280;37033;49.994;21.992;2022-12-29T00:21:48;99502.71;;;1.70;72.63
50710;BME280;37033;49.994;21.992;2022-12-29T00:24:56;99499.58;;;1.69;72.78
50710;BME280;37033;49.994;21.992;2022-12-29T00:28:04;99506.25;;;1.69;72.54
50710;BME280;37033;49.994;21.992;2022-12-29T00:31:13;99507.53;;;1.70;72.51
50710;BME280;37033;49.994;21.992;2022-12-29T00:34:23;99511.49;;;1.70;72.44
50710;BME280;37033;49.994;21.992;2022-12-29T00:37:31;99515.23;;;1.70;72.43
50710;BME280;37033;49.994;21.992;2022-12-29T00:40:34;99513.06;;;1.72;72.28
50710;BME280;37033;49.994;21.992;2022-12-29T00:43:42;99514.88;;;1.71;72.23
50710;BME280;37033;49.994;21.992;2022-12-29T00:46:50;99513.15;;;1.72;71.96
50710;BME280;37033;49.994;21.992;2022-12-29T00:49:40;99512.14;;;1.73;72.05
50710;BME280;37033;49.994;21.992;2022-12-29T00:52:30;99520.39;;;1.73;72.05
50710;BME280;37033;49.994;21.992;2022-12-29T00:55:20;99527.31;;;1.76;71.75
50710;BME280;37033;49.994;21.992;2022-12-29T00:58:10;99525.17;;;1.80;71.58
50710;BME280;37033;49.994;21.992;2022-12-29T01:01:05;99519.63;;;1.83;71.58
50710;BME280;37033;49.994;21.992;2022-12-29T01:03:55;99514.16;;;1.82;71.63
50710;BME280;37033;49.994;21.992;2022-12-29T01:06:44;99509.77;;;1.78;71.68
50710;BME280;37033;49.994;21.992;2022-12-29T01:09:35;99511.19;;;1.74;71.78
50710;BME280;37033;49.994;21.992;2022-12-29T01:12:42;99511.72;;;1.71;71.89
50710;BME280;37033;49.994;21.992;2022-12-29T01:15:33;99512.34;;;1.69;72.03
50710;BME280;37033;49.994;21.992;2022-12-29T01:18:23;99505.39;;;1.67;72.09
50710;BME280;37033;49.994;21.992;2022-12-29T01:21:14;99503.25;;;1.67;71.87
50710;BME280;37033;49.994;21.992;2022-12-29T01:24:05;99502.39;;;1.70;71.71
50710;BME280;37033;49.994;21.992;2022-12-29T01:26:55;99500.36;;;1.70;71.70
50710;BME280;37033;49.994;21.992;2022-12-29T01:29:45;99501.92;;;1.69;71.66
50710;BME280;37033;49.994;21.992;2022-12-29T01:32:35;99498.16;;;1.69;71.67
50710;BME280;37033;49.994;21.992;2022-12-29T01:35:25;99499.63;;;1.70;71.69
50710;BME280;37033;49.994;21.992;2022-12-29T01:38:15;99493.92;;;1.69;71.73
50710;BME280;37033;49.994;21.992;2022-12-29T01:41:06;99484.95;;;1.67;71.52
50710;BME280;37033;49.994;21.992;2022-12-29T01:43:58;99481.60;;;1.67;71.52
50710;BME280;37033;49.994;21.992;2022-12-29T01:46:51;99483.67;;;1.65;71.65
50710;BME280;37033;49.994;21.992;2022-12-29T01:49:41;99478.02;;;1.64;71.64
50710;BME280;37033;49.994;21.992;2022-12-29T01:52:33;99486.20;;;1.63;71.69
50710;BME280;37033;49.994;21.992;2022-12-29T01:55:25;99485.80;;;1.64;71.61
50710;BME280;37033;49.994;21.992;2022-12-29T01:58:17;99480.33;;;1.62;71.57
50710;BME280;37033;49.994;21.992;2022-12-29T02:01:10;99468.63;;;1.62;71.62
50710;BME280;37033;49.994;21.992;2022-12-29T02:04:01;99462.66;;;1.63;71.29
50710;BME280;37033;49.994;21.992;2022-12-29T02:06:53;99461.64;;;1.64;71.29
50710;BME280;37033;49.994;21.992;2022-12-29T02:09:45;99458.80;;;1.64;71.16
50710;BME280;37033;49.994;21.992;2022-12-29T02:12:36;99457.14;;;1.66;71.01
50710;BME280;37033;49.994;21.992;2022-12-29T02:15:35;99452.48;;;1.66;70.95
50710;BME280;37033;49.994;21.992;2022-12-29T02:18:36;99447.77;;;1.65;70.99
50710;BME280;37033;49.994;21.992;2022-12-29T02:21:44;99451.05;;;1.63;70.95
50710;BME280;37033;49.994;21.992;2022-12-29T02:24:57;99450.30;;;1.62;70.79
50710;BME280;37033;49.994;21.992;2022-12-29T02:27:57;99443.00;;;1.63;70.42
50710;BME280;37033;49.994;21.992;2022-12-29T02:31:04;99441.70;;;1.66;70.27
50710;BME280;37033;49.994;21.992;2022-12-29T02:34:03;99437.17;;;1.70;69.82
50710;BME280;37033;49.994;21.992;2022-12-29T02:37:03;99436.17;;;1.72;69.88
50710;BME280;37033;49.994;21.992;2022-12-29T02:40:04;99437.43;;;1.76;69.21
50710;BME280;37033;49.994;21.992;2022-12-29T02:43:01;99436.95;;;1.81;68.99
50710;BME280;37033;49.994;21.992;2022-12-29T02:45:56;99439.38;;;1.83;68.99
50710;BME280;37033;49.994;21.992;2022-12-29T02:48:52;99437.45;;;1.84;68.54
50710;BME280;37033;49.994;21.992;2022-12-29T02:51:52;99443.97;;;1.87;68.60
50710;BME280;37033;49.994;21.992;2022-12-29T02:54:46;99451.14;;;1.89;68.02
50710;BME280;37033;49.994;21.992;2022-12-29T02:57:37;99453.17;;;1.90;68.30
50710;BME280;37033;49.994;21.992;2022-12-29T03:00:27;99454.38;;;1.90;68.03
50710;BME280;37033;49.994;21.992;2022-12-29T03:03:23;99450.08;;;1.95;67.24
50710;BME280;37033;49.994;21.992;2022-12-29T03:06:33;99444.50;;;1.98;67.11
50710;BME280;37033;49.994;21.992;2022-12-29T03:09:36;99432.44;;;1.99;67.10
50710;BME280;37033;49.994;21.992;2022-12-29T03:12:34;99442.08;;;1.98;66.89
50710;BME280;37033;49.994;21.992;2022-12-29T03:15:46;99439.91;;;2.01;66.55
50710;BME280;37033;49.994;21.992;2022-12-29T03:18:57;99446.77;;;2.03;66.61
50710;BME280;37033;49.994;21.992;2022-12-29T03:21:51;99443.42;;;2.03;66.78
50710;BME280;37033;49.994;21.992;2022-12-29T03:25:04;99447.85;;;2.05;66.50
50710;BME280;37033;49.994;21.992;2022-12-29T03:27:58;99452.30;;;2.06;66.31
50710;BME280;37033;49.994;21.992;2022-12-29T03:30:50;99454.89;;;2.08;65.91
50710;BME280;37033;49.994;21.992;2022-12-29T03:33:42;99449.80;;;2.11;66.16
50710;BME280;37033;49.994;21.992;2022-12-29T03:36:42;99446.94;;;2.11;66.16
50710;BME280;37033;49.994;21.992;2022-12-29T03:39:33;99441.85;;;2.11;66.22
50710;BME280;37033;49.994;21.992;2022-12-29T03:42:25;99439.42;;;2.12;66.01
50710;BME280;37033;49.994;21.992;2022-12-29T03:45:17;99440.09;;;2.12;66.10
50710;BME280;37033;49.994;21.992;2022-12-29T03:48:08;99449.79;;;2.12;66.20
50710;BME280;37033;49.994;21.992;2022-12-29T03:50:57;99441.48;;;2.11;66.03
50710;BME280;37033;49.994;21.992;2022-12-29T03:53:47;99442.83;;;2.13;65.43
50710;BME280;37033;49.994;21.992;2022-12-29T03:56:37;99450.73;;;2.15;65.66
50710;BME280;37033;49.994;21.992;2022-12-29T03:59:27;99454.09;;;2.13;65.95
50710;BME280;37033;49.994;21.992;2022-12-29T04:02:17;99462.48;;;2.12;66.12
50710;BME280;37033;49.994;21.992;2022-12-29T04:05:08;99459.16;;;2.10;66.05
50710;BME280;37033;49.994;21.992;2022-12-29T04:07:58;99455.44;;;2.10;66.17
50710;BME280;37033;49.994;21.992;2022-12-29T04:10:49;99448.64;;;2.07;66.20
50710;BME280;37033;49.994;21.992;2022-12-29T04:13:39;99442.35;;;2.06;66.07
50710;BME280;37033;49.994;21.992;2022-12-29T04:16:29;99442.41;;;2.08;65.90
50710;BME280;37033;49.994;21.992;2022-12-29T04:19:19;99432.44;;;2.11;65.65
50710;BME280;37033;49.994;21.992;2022-12-29T04:22:09;99439.04;;;2.14;65.59
50710;BME280;37033;49.994;21.992;2022-12-29T04:25:00;99440.65;;;2.17;65.38
50710;BME280;37033;49.994;21.992;2022-12-29T04:27:50;99437.89;;;2.19;65.14
50710;BME280;37033;49.994;21.992;2022-12-29T04:30:40;99431.92;;;2.20;65.00
50710;BME280;37033;49.994;21.992;2022-12-29T04:33:30;99423.83;;;2.18;65.31
50710;BME280;37033;49.994;21.992;2022-12-29T04:36:20;99426.81;;;2.16;65.39
50710;BME280;37033;49.994;21.992;2022-12-29T04:39:10;99429.49;;;2.13;65.45
50710;BME280;37033;49.994;21.992;2022-12-29T04:42:00;99433.52;;;2.12;65.16
50710;BME280;37033;49.994;21.992;2022-12-29T04:44:50;99429.94;;;2.12;65.18
50710;BME280;37033;49.994;21.992;2022-12-29T04:47:40;99428.95;;;2.13;64.97
50710;BME280;37033;49.994;21.992;2022-12-29T04:50:30;99430.70;;;2.13;65.05
50710;BME280;37033;49.994;21.992;2022-12-29T04:53:21;99432.72;;;2.11;65.13
50710;BME280;37033;49.994;21.992;2022-12-29T04:56:11;99434.58;;;2.11;65.06
50710;BME280;37033;49.994;21.992;2022-12-29T04:59:00;99433.12;;;2.10;65.27
50710;BME280;37033;49.994;21.992;2022-12-29T05:01:50;99432.05;;;2.10;65.20
50710;BME280;37033;49.994;21.992;2022-12-29T05:04:40;99425.27;;;2.12;64.97
50710;BME280;37033;49.994;21.992;2022-12-29T05:07:30;99423.98;;;2.13;65.04
50710;BME280;37033;49.994;21.992;2022-12-29T05:10:22;99421.02;;;2.14;65.05
50710;BME280;37033;49.994;21.992;2022-12-29T05:13:12;99413.05;;;2.14;65.18
50710;BME280;37033;49.994;21.992;2022-12-29T05:16:02;99408.31;;;2.15;64.70
50710;BME280;37033;49.994;21.992;2022-12-29T05:18:52;99415.36;;;2.17;64.74
50710;BME280;37033;49.994;21.992;2022-12-29T05:21:42;99420.29;;;2.20;64.51
50710;BME280;37033;49.994;21.992;2022-12-29T05:24:32;99426.69;;;2.20;64.68
50710;BME280;37033;49.994;21.992;2022-12-29T05:27:22;99431.50;;;2.18;64.77
50710;BME280;37033;49.994;21.992;2022-12-29T05:30:13;99437.58;;;2.19;64.49
50710;BME280;37033;49.994;21.992;2022-12-29T05:33:03;99422.65;;;2.20;64.49
50710;BME280;37033;49.994;21.992;2022-12-29T05:35:55;99418.27;;;2.20;64.44
50710;BME280;37033;49.994;21.992;2022-12-29T05:38:45;99416.61;;;2.22;64.53
50710;BME280;37033;49.994;21.992;2022-12-29T05:41:35;99421.52;;;2.25;64.51
50710;BME280;37033;49.994;21.992;2022-12-29T05:44:25;99415.01;;;2.25;64.62
50710;BME280;37033;49.994;21.992;2022-12-29T05:47:15;99412.88;;;2.26;64.21
50710;BME280;37033;49.994;21.992;2022-12-29T05:50:06;99405.46;;;2.28;64.32
50710;BME280;37033;49.994;21.992;2022-12-29T05:52:56;99397.56;;;2.29;64.40
50710;BME280;37033;49.994;21.992;2022-12-29T05:55:47;99392.33;;;2.31;63.86
50710;BME280;37033;49.994;21.992;2022-12-29T05:58:37;99390.73;;;2.35;63.26
50710;BME280;37033;49.994;21.992;2022-12-29T06:01:27;99381.54;;;2.40;62.59
50710;BME280;37033;49.994;21.992;2022-12-29T06:04:17;99373.42;;;2.42;62.87
50710;BME280;37033;49.994;21.992;2022-12-29T06:07:07;99376.23;;;2.44;62.63
50710;BME280;37033;49.994;21.992;2022-12-29T06:09:57;99385.11;;;2.44;62.68
50710;BME280;37033;49.994;21.992;2022-12-29T06:12:46;99383.09;;;2.45;62.55
50710;BME280;37033;49.994;21.992;2022-12-29T06:15:36;99373.73;;;2.45;62.53
50710;BME280;37033;49.994;21.992;2022-12-29T06:18:26;99378.92;;;2.45;62.67
50710;BME280;37033;49.994;21.992;2022-12-29T06:21:16;99380.30;;;2.46;62.44
50710;BME280;37033;49.994;21.992;2022-12-29T06:24:07;99394.52;;;2.45;62.71
50710;BME280;37033;49.994;21.992;2022-12-29T06:26:58;99398.24;;;2.45;62.54
50710;BME280;37033;49.994;21.992;2022-12-29T06:29:48;99396.05;;;2.44;63.02
50710;BME280;37033;49.994;21.992;2022-12-29T06:32:38;99396.36;;;2.43;63.05
50710;BME280;37033;49.994;21.992;2022-12-29T06:35:28;99396.21;;;2.41;63.25
50710;BME280;37033;49.994;21.992;2022-12-29T06:38:18;99390.09;;;2.40;63.11
50710;BME280;37033;49.994;21.992;2022-12-29T06:41:08;99390.83;;;2.40;63.07
50710;BME280;37033;49.994;21.992;2022-12-29T06:43:58;99391.85;;;2.39;63.23
50710;BME280;37033;49.994;21.992;2022-12-29T06:46:49;99395.61;;;2.39;63.17
50710;BME280;37033;49.994;21.992;2022-12-29T06:49:40;99400.35;;;2.40;63.15
50710;BME280;37033;49.994;21.992;2022-12-29T06:52:30;99394.39;;;2.37;63.49
50710;BME280;37033;49.994;21.992;2022-12-29T06:55:19;99394.38;;;2.36;63.58
50710;BME280;37033;49.994;21.992;2022-12-29T06:58:09;99394.36;;;2.34;63.55
50710;BME280;37033;49.994;21.992;2022-12-29T07:00:59;99395.14;;;2.32;63.78
50710;BME280;37033;49.994;21.992;2022-12-29T07:03:49;99389.23;;;2.33;63.79
50710;BME280;37033;49.994;21.992;2022-12-29T07:06:39;99392.28;;;2.32;63.80
50710;BME280;37033;49.994;21.992;2022-12-29T07:09:30;99393.24;;;2.33;63.85
50710;BME280;37033;49.994;21.992;2022-12-29T07:12:19;99398.08;;;2.36;63.83
50710;BME280;37033;49.994;21.992;2022-12-29T07:15:10;99393.98;;;2.36;63.99
50710;BME280;37033;49.994;21.992;2022-12-29T07:18:01;99389.60;;;2.37;64.11
50710;BME280;37033;49.994;21.992;2022-12-29T07:20:51;99385.11;;;2.38;64.05
50710;BME280;37033;49.994;21.992;2022-12-29T07:23:41;99384.61;;;2.41;64.02
50710;BME280;37033;49.994;21.992;2022-12-29T07:26:31;99375.23;;;2.43;64.08
50710;BME280;37033;49.994;21.992;2022-12-29T07:29:22;99376.35;;;2.47;63.91
50710;BME280;37033;49.994;21.992;2022-12-29T07:32:12;99377.58;;;2.53;63.58
50710;BME280;37033;49.994;21.992;2022-12-29T07:35:02;99370.30;;;2.57;63.70
50710;BME280;37033;49.994;21.992;2022-12-29T07:37:52;99367.41;;;2.62;63.68
50710;BME280;37033;49.994;21.992;2022-12-29T07:40:42;99365.86;;;2.66;63.63
50710;BME280;37033;49.994;21.992;2022-12-29T07:43:32;99363.33;;;2.69;63.68
50710;BME280;37033;49.994;21.992;2022-12-29T07:46:22;99360.09;;;2.71;63.54
50710;BME280;37033;49.994;21.992;2022-12-29T07:49:12;99359.35;;;2.76;63.55
50710;BME280;37033;49.994;21.992;2022-12-29T07:52:02;99357.46;;;2.81;63.65
50710;BME280;37033;49.994;21.992;2022-12-29T07:54:52;99349.69;;;2.85;63.68
50710;BME280;37033;49.994;21.992;2022-12-29T07:57:42;99352.66;;;2.88;63.61
50710;BME280;37033;49.994;21.992;2022-12-29T08:00:32;99349.34;;;2.92;63.47
50710;BME280;37033;49.994;21.992;2022-12-29T08:03:21;99352.39;;;2.94;63.46
50710;BME280;37033;49.994;21.992;2022-12-29T08:06:12;99348.81;;;2.99;63.28
50710;BME280;37033;49.994;21.992;2022-12-29T08:09:01;99347.86;;;3.02;63.49
50710;BME280;37033;49.994;21.992;2022-12-29T08:11:51;99346.48;;;3.06;63.28
50710;BME280;37033;49.994;21.992;2022-12-29T08:14:41;99345.33;;;3.11;63.18
50710;BME280;37033;49.994;21.992;2022-12-29T08:17:30;99354.88;;;3.16;63.31
50710;BME280;37033;49.994;21.992;2022-12-29T08:20:21;99355.70;;;3.21;62.97
50710;BME280;37033;49.994;21.992;2022-12-29T08:23:11;99348.89;;;3.27;62.81
50710;BME280;37033;49.994;21.992;2022-12-29T08:26:04;99349.09;;;3.32;62.75
50710;BME280;37033;49.994;21.992;2022-12-29T08:28:55;99355.27;;;3.39;62.86
50710;BME280;37033;49.994;21.992;2022-12-29T08:31:45;99353.34;;;3.44;62.71
50710;BME280;37033;49.994;21.992;2022-12-29T08:34:35;99356.77;;;3.49;62.78
50710;BME280;37033;49.994;21.992;2022-12-29T08:37:25;99358.23;;;3.55;62.84
50710;BME280;37033;49.994;21.992;2022-12-29T08:40:15;99358.67;;;3.60;62.71
50710;BME280;37033;49.994;21.992;2022-12-29T08:43:04;99357.42;;;3.66;62.29
50710;BME280;37033;49.994;21.992;2022-12-29T08:45:55;99352.53;;;3.72;62.39
50710;BME280;37033;49.994;21.992;2022-12-29T08:48:45;99349.45;;;3.81;62.18
50710;BME280;37033;49.994;21.992;2022-12-29T08:51:34;99349.73;;;3.87;62.30
50710;BME280;37033;49.994;21.992;2022-12-29T08:54:25;99354.70;;;3.95;62.25
50710;BME280;37033;49.994;21.992;2022-12-29T08:57:14;99347.88;;;3.99;62.17
50710;BME280;37033;49.994;21.992;2022-12-29T09:00:06;99341.48;;;4.04;61.65
50710;BME280;37033;49.994;21.992;2022-12-29T09:02:56;99339.16;;;4.10;61.71
50710;BME280;37033;49.994;21.992;2022-12-29T09:05:49;99336.69;;;4.14;61.76
50710;BME280;37033;49.994;21.992;2022-12-29T09:08:39;99327.52;;;4.18;61.22
50710;BME280;37033;49.994;21.992;2022-12-29T09:11:29;99323.35;;;4.21;61.47
50710;BME280;37033;49.994;21.992;2022-12-29T09:14:19;99317.88;;;4.23;61.39
50710;BME280;37033;49.994;21.992;2022-12-29T09:17:10;99316.69;;;4.25;61.35
50710;BME280;37033;49.994;21.992;2022-12-29T09:20:18;99312.44;;;4.27;61.43
50710;BME280;37033;49.994;21.992;2022-12-29T09:23:08;99316.09;;;4.31;61.58
50710;BME280;37033;49.994;21.992;2022-12-29T09:25:58;99308.34;;;4.37;61.53
50710;BME280;37033;49.994;21.992;2022-12-29T09:28:49;99307.52;;;4.44;61.37
50710;BME280;37033;49.994;21.992;2022-12-29T09:31:38;99303.72;;;4.51;61.51
50710;BME280;37033;49.994;21.992;2022-12-29T09:34:28;99301.48;;;4.57;61.78
50710;BME280;37033;49.994;21.992;2022-12-29T09:37:18;99305.81;;;4.65;62.02
50710;BME280;37033;49.994;21.992;2022-12-29T09:40:17;99311.55;;;4.78;61.53
50710;BME280;37033;49.994;21.992;2022-12-29T09:43:29;99305.50;;;4.85;61.32
50710;BME280;37033;49.994;21.992;2022-12-29T09:46:25;99302.11;;;4.90;61.04
50710;BME280;37033;49.994;21.992;2022-12-29T09:49:23;99298.95;;;4.93;60.75
50710;BME280;37033;49.994;21.992;2022-12-29T09:52:15;99291.79;;;4.94;60.99
50710;BME280;37033;49.994;21.992;2022-12-29T09:55:12;99285.95;;;4.95;61.08
50710;BME280;37033;49.994;21.992;2022-12-29T09:58:09;99288.19;;;4.94;61.04
50710;BME280;37033;49.994;21.992;2022-12-29T10:01:03;99287.73;;;4.97;61.01
50710;BME280;37033;49.994;21.992;2022-12-29T10:03:56;99296.69;;;5.00;60.91
50710;BME280;37033;49.994;21.992;2022-12-29T10:06:50;99294.94;;;5.05;60.89
50710;BME280;37033;49.994;21.992;2022-12-29T10:09:45;99289.85;;;5.13;60.62
50710;BME280;37033;49.994;21.992;2022-12-29T10:12:54;99289.17;;;5.21;60.13
50710;BME280;37033;49.994;21.992;2022-12-29T10:15:58;99285.54;;;5.29;59.97
50710;BME280;37033;49.994;21.992;2022-12-29T10:19:02;99287.36;;;5.35;60.17
50710;BME280;37033;49.994;21.992;2022-12-29T10:22:06;99279.27;;;5.41;59.91
50710;BME280;37033;49.994;21.992;2022-12-29T10:24:58;99274.58;;;5.42;60.02
50710;BME280;37033;49.994;21.992;2022-12-29T10:27:53;99273.20;;;5.40;60.25
50710;BME280;37033;49.994;21.992;2022-12-29T10:30:47;99269.77;;;5.39;60.19
50710;BME280;37033;49.994;21.992;2022-12-29T10:33:39;99271.48;;;5.40;60.32
50710;BME280;37033;49.994;21.992;2022-12-29T10:36:35;99273.29;;;5.42;60.31
50710;BME280;37033;49.994;21.992;2022-12-29T10:39:32;99280.00;;;5.44;60.59
50710;BME280;37033;49.994;21.992;2022-12-29T10:42:28;99274.57;;;5.46;60.84
50710;BME280;37033;49.994;21.992;2022-12-29T10:45:20;99272.20;;;5.49;60.80
50710;BME280;37033;49.994;21.992;2022-12-29T10:48:19;99273.18;;;5.53;60.79
50710;BME280;37033;49.994;21.992;2022-12-29T10:51:10;99270.10;;;5.59;60.62
50710;BME280;37033;49.994;21.992;2022-12-29T10:54:10;99266.19;;;5.64;60.71
50710;BME280;37033;49.994;21.992;2022-12-29T10:57:03;99261.45;;;5.68;60.47
50710;BME280;37033;49.994;21.992;2022-12-29T10:59:54;99257.56;;;5.73;60.25
50710;BME280;37033;49.994;21.992;2022-12-29T11:06:06;99247.58;;;5.82;60.80
50710;BME280;37033;49.994;21.992;2022-12-29T11:09:02;99253.20;;;5.85;60.89
50710;BME280;37033;49.994;21.992;2022-12-29T11:11:57;99257.72;;;5.87;60.39
50710;BME280;37033;49.994;21.992;2022-12-29T11:14:47;99259.38;;;5.88;59.73
50710;BME280;37033;49.994;21.992;2022-12-29T11:17:51;99256.19;;;5.86;60.10
50710;BME280;37033;49.994;21.992;2022-12-29T11:20:42;99257.91;;;5.81;60.47
50710;BME280;37033;49.994;21.992;2022-12-29T11:23:36;99255.57;;;5.76;60.35
50710;BME280;37033;49.994;21.992;2022-12-29T11:26:27;99256.81;;;5.72;60.20
50710;BME280;37033;49.994;21.992;2022-12-29T11:29:28;99253.39;;;5.68;60.52
50710;BME280;37033;49.994;21.992;2022-12-29T11:32:22;99261.98;;;5.64;60.60
50710;BME280;37033;49.994;21.992;2022-12-29T11:35:31;99258.85;;;5.61;60.67
50710;BME280;37033;49.994;21.992;2022-12-29T11:38:23;99253.42;;;5.59;60.59
50710;BME280;37033;49.994;21.992;2022-12-29T11:41:20;99254.30;;;5.56;60.82
50710;BME280;37033;49.994;21.992;2022-12-29T11:44:13;99259.89;;;5.56;60.79
50710;BME280;37033;49.994;21.992;2022-12-29T11:47:04;99264.92;;;5.57;60.56
50710;BME280;37033;49.994;21.992;2022-12-29T11:49:57;99258.56;;;5.61;60.86
50710;BME280;37033;49.994;21.992;2022-12-29T11:52:49;99255.19;;;5.65;60.95
50710;BME280;37033;49.994;21.992;2022-12-29T11:55:41;99248.91;;;5.69;60.97
50710;BME280;37033;49.994;21.992;2022-12-29T11:58:40;99249.63;;;5.76;60.99
50710;BME280;37033;49.994;21.992;2022-12-29T12:01:34;99251.20;;;5.79;60.57
50710;BME280;37033;49.994;21.992;2022-12-29T12:04:24;99243.64;;;5.79;60.24
50710;BME280;37033;49.994;21.992;2022-12-29T12:07:17;99240.62;;;5.77;60.58
50710;BME280;37033;49.994;21.992;2022-12-29T12:10:18;99238.27;;;5.80;60.69
50710;BME280;37033;49.994;21.992;2022-12-29T12:13:17;99239.60;;;5.83;60.81
50710;BME280;37033;49.994;21.992;2022-12-29T12:16:11;99232.98;;;5.85;60.80
50710;BME280;37033;49.994;21.992;2022-12-29T12:19:06;99243.48;;;5.86;60.98
50710;BME280;37033;49.994;21.992;2022-12-29T12:22:07;99234.54;;;5.92;60.68
50710;BME280;37033;49.994;21.992;2022-12-29T12:25:03;99232.34;;;5.99;60.79
50710;BME280;37033;49.994;21.992;2022-12-29T12:28:01;99237.23;;;6.07;60.40
50710;BME280;37033;49.994;21.992;2022-12-29T12:30:56;99230.67;;;6.12;60.15
50710;BME280;37033;49.994;21.992;2022-12-29T12:33:50;99234.20;;;6.16;60.46
50710;BME280;37033;49.994;21.992;2022-12-29T12:36:56;99234.35;;;6.18;60.72
50710;BME280;37033;49.994;21.992;2022-12-29T12:40:02;99232.53;;;6.22;60.55
50710;BME280;37033;49.994;21.992;2022-12-29T12:43:05;99235.02;;;6.25;60.27
50710;BME280;37033;49.994;21.992;2022-12-29T12:46:09;99236.95;;;6.27;60.31
50710;BME280;37033;49.994;21.992;2022-12-29T12:52:29;99220.70;;;6.28;60.14
50710;BME280;37033;49.994;21.992;2022-12-29T12:55:35;99224.45;;;6.27;60.10
50710;BME280;37033;49.994;21.992;2022-12-29T12:58:38;99228.11;;;6.27;60.15
50710;BME280;37033;49.994;21.992;2022-12-29T13:01:42;99227.92;;;6.23;60.18
50710;BME280;37033;49.994;21.992;2022-12-29T13:04:56;99234.04;;;6.15;60.73
50710;BME280;37033;49.994;21.992;2022-12-29T13:08:02;99227.01;;;6.08;60.79
50710;BME280;37033;49.994;21.992;2022-12-29T13:11:01;99226.13;;;6.01;61.05
50710;BME280;37033;49.994;21.992;2022-12-29T13:14:04;99218.56;;;5.96;61.57
50710;BME280;37033;49.994;21.992;2022-12-29T13:17:02;99224.03;;;5.94;61.48
50710;BME280;37033;49.994;21.992;2022-12-29T13:20:02;99224.63;;;5.95;61.58
50710;BME280;37033;49.994;21.992;2022-12-29T13:23:02;99218.14;;;5.97;61.52
50710;BME280;37033;49.994;21.992;2022-12-29T13:25:59;99218.52;;;5.94;61.69
50710;BME280;37033;49.994;21.992;2022-12-29T13:28:58;99225.33;;;5.91;61.86
50710;BME280;37033;49.994;21.992;2022-12-29T13:31:56;99227.98;;;5.89;62.14
50710;BME280;37033;49.994;21.992;2022-12-29T13:34:56;99229.95;;;5.85;62.37
50710;BME280;37033;49.994;21.992;2022-12-29T13:37:56;99232.05;;;5.82;62.56
50710;BME280;37033;49.994;21.992;2022-12-29T13:40:52;99225.31;;;5.77;62.75
50710;BME280;37033;49.994;21.992;2022-12-29T13:43:45;99226.73;;;5.76;62.87
50710;BME280;37033;49.994;21.992;2022-12-29T13:46:38;99229.48;;;5.72;63.20
50710;BME280;37033;49.994;21.992;2022-12-29T13:49:28;99237.38;;;5.68;63.31
50710;BME280;37033;49.994;21.992;2022-12-29T13:52:24;99238.46;;;5.65;63.44
50710;BME280;37033;49.994;21.992;2022-12-29T13:55:26;99237.05;;;5.64;63.54
50710;BME280;37033;49.994;21.992;2022-12-29T13:58:24;99234.96;;;5.60;63.72
50710;BME280;37033;49.994;21.992;2022-12-29T14:01:20;99238.33;;;5.56;63.96
50710;BME280;37033;49.994;21.992;2022-12-29T14:04:14;99250.25;;;5.53;64.03
50710;BME280;37033;49.994;21.992;2022-12-29T14:07:05;99252.13;;;5.50;64.23
50710;BME280;37033;49.994;21.992;2022-12-29T14:09:56;99255.31;;;5.49;64.36
50710;BME280;37033;49.994;21.992;2022-12-29T14:12:46;99254.54;;;5.46;64.42
50710;BME280;37033;49.994;21.992;2022-12-29T14:15:39;99261.85;;;5.44;64.55
50710;BME280;37033;49.994;21.992;2022-12-29T14:18:31;99265.38;;;5.40;64.74
50710;BME280;37033;49.994;21.992;2022-12-29T14:21:26;99265.31;;;5.35;65.00
50710;BME280;37033;49.994;21.992;2022-12-29T14:24:44;99261.34;;;5.32;65.24
50710;BME280;37033;49.994;21.992;2022-12-29T14:27:53;99258.27;;;5.28;65.48
50710;BME280;37033;49.994;21.992;2022-12-29T14:30:51;99254.67;;;5.26;65.69
50710;BME280;37033;49.994;21.992;2022-12-29T14:33:41;99260.19;;;5.24;65.84
50710;BME280;37033;49.994;21.992;2022-12-29T14:36:56;99264.71;;;5.19;66.03
50710;BME280;37033;49.994;21.992;2022-12-29T14:39:45;99262.77;;;5.14;66.14
50710;BME280;37033;49.994;21.992;2022-12-29T14:42:35;99265.64;;;5.07;66.33
50710;BME280;37033;49.994;21.992;2022-12-29T14:45:29;99267.05;;;5.02;66.44
50710;BME280;37033;49.994;21.992;2022-12-29T14:48:38;99267.84;;;4.97;66.80
50710;BME280;37033;49.994;21.992;2022-12-29T14:51:34;99267.39;;;4.90;67.03
50710;BME280;37033;49.994;21.992;2022-12-29T14:54:49;99268.26;;;4.87;67.23
50710;BME280;37033;49.994;21.992;2022-12-29T14:57:41;99267.88;;;4.81;67.75
50710;BME280;37033;49.994;21.992;2022-12-29T15:00:34;99266.48;;;4.79;67.88
50710;BME280;37033;49.994;21.992;2022-12-29T15:03:28;99270.53;;;4.76;68.13
50710;BME280;37033;49.994;21.992;2022-12-29T15:06:19;99280.77;;;4.74;68.54
50710;BME280;37033;49.994;21.992;2022-12-29T15:09:20;99281.55;;;4.76;68.72
50710;BME280;37033;49.994;21.992;2022-12-29T15:12:21;99285.15;;;4.76;68.74
50710;BME280;37033;49.994;21.992;2022-12-29T15:15:21;99286.60;;;4.74;68.91
50710;BME280;37033;49.994;21.992;2022-12-29T15:18:23;99283.33;;;4.71;69.33
50710;BME280;37033;49.994;21.992;2022-12-29T15:21:15;99281.92;;;4.68;69.32
50710;BME280;37033;49.994;21.992;2022-12-29T15:24:08;99277.83;;;4.65;69.55
50710;BME280;37033;49.994;21.992;2022-12-29T15:27:04;99278.56;;;4.64;69.87
50710;BME280;37033;49.994;21.992;2022-12-29T15:30:01;99280.05;;;4.62;70.05